createdAt,value
2018-06-30T00:00:05.075Z,32.6
2018-06-30T00:01:06.976Z,32.5
2018-06-30T00:02:08.915Z,32.5
2018-06-30T00:03:11.097Z,32.5
2018-06-30T00:04:13.555Z,32.5
2018-06-30T00:05:15.999Z,32.5
2018-06-30T00:06:18.189Z,32.6
2018-06-30T00:07:20.375Z,32.6
2018-06-30T00:08:22.826Z,32.5
2018-06-30T00:09:25.278Z,32.6
2018-06-30T00:10:27.895Z,32.4
2018-06-30T00:11:30.654Z,32.5
2018-06-30T00:12:32.828Z,32.5
2018-06-30T00:13:35.291Z,32.6
2018-06-30T00:14:37.443Z,32.5
2018-06-30T00:15:39.348Z,32.6
2018-06-30T00:16:41.787Z,32.6
2018-06-30T00:17:43.698Z,32.6
2018-06-30T00:18:45.112Z,32.5
2018-06-30T00:19:47.010Z,32.5
2018-06-30T00:20:49.450Z,32.5
2018-06-30T00:21:51.364Z,32.5
2018-06-30T00:22:53.803Z,32.6
2018-06-30T00:23:56.023Z,32.5
2018-06-30T00:24:58.467Z,32.5
2018-06-30T00:26:00.376Z,32.7
2018-06-30T00:27:02.548Z,32.5
2018-06-30T00:28:04.732Z,32.5
2018-06-30T00:29:06.643Z,32.6
2018-06-30T00:30:08.823Z,32.6
2018-06-30T00:31:11.266Z,32.5
2018-06-30T00:32:13.458Z,32.5
2018-06-30T00:33:15.355Z,32.6
2018-06-30T00:34:17.809Z,32.6
2018-06-30T00:35:20.249Z,32.6
2018-06-30T00:36:22.700Z,32.6
2018-06-30T00:37:25.139Z,32.6
2018-06-30T00:38:26.788Z,32.6
2018-06-30T00:39:29.236Z,32.6
2018-06-30T00:40:31.697Z,32.6
2018-06-30T00:41:34.141Z,32.6
2018-06-30T00:42:36.285Z,32.5
2018-06-30T00:43:38.744Z,32.6
2018-06-30T00:44:40.639Z,32.6
2018-06-30T00:45:43.079Z,32.6
2018-06-30T00:46:45.520Z,32.6
2018-06-30T00:47:47.685Z,32.5
2018-06-30T00:48:49.309Z,32.5
2018-06-30T00:49:51.770Z,32.6
2018-06-30T00:50:53.688Z,32.6
2018-06-30T00:51:55.877Z,32.6
2018-06-30T00:52:57.514Z,32.6
2018-06-30T00:53:59.686Z,32.6
2018-06-30T00:55:02.137Z,32.6
2018-06-30T00:56:04.048Z,32.5
2018-06-30T00:57:06.208Z,32.6
2018-06-30T00:58:08.657Z,32.5
2018-06-30T00:59:10.346Z,32.6
2018-06-30T01:00:12.798Z,32.6
2018-06-30T01:01:14.981Z,32.6
2018-06-30T01:02:17.429Z,32.6
2018-06-30T01:03:19.620Z,32.5
2018-06-30T01:04:22.062Z,32.5
2018-06-30T01:05:24.508Z,32.5
2018-06-30T01:06:26.391Z,32.6
2018-06-30T01:07:27.990Z,32.6
2018-06-30T01:08:30.189Z,32.7
2018-06-30T01:09:32.079Z,32.7
2018-06-30T01:10:33.969Z,32.5
2018-06-30T01:11:36.167Z,32.6
2018-06-30T01:12:38.336Z,32.6
2018-06-30T01:13:40.542Z,32.5
2018-06-30T01:14:42.736Z,32.5
2018-06-30T01:15:44.649Z,32.5
2018-06-30T01:16:47.098Z,32.5
2018-06-30T01:17:49.559Z,32.7
2018-06-30T01:18:52.038Z,32.6
2018-06-30T01:19:53.665Z,32.7
2018-06-30T01:20:55.570Z,32.6
2018-06-30T01:21:58.046Z,32.6
2018-06-30T01:23:00.208Z,32.7
2018-06-30T01:24:02.387Z,32.6
2018-06-30T01:25:04.583Z,32.6
2018-06-30T01:26:07.019Z,32.6
2018-06-30T01:27:09.475Z,32.5
2018-06-30T01:28:11.655Z,32.6
2018-06-30T01:29:13.821Z,32.6
2018-06-30T01:30:16.259Z,32.6
2018-06-30T01:31:18.701Z,32.7
2018-06-30T01:32:20.617Z,32.6
2018-06-30T01:33:22.808Z,32.6
2018-06-30T01:34:24.945Z,32.6
2018-06-30T01:35:27.122Z,32.6
2018-06-30T01:36:29.589Z,32.5
2018-06-30T01:37:31.476Z,32.6
2018-06-30T01:38:33.373Z,32.6
2018-06-30T01:39:35.818Z,32.6
2018-06-30T01:40:38.009Z,32.6
2018-06-30T01:41:40.456Z,32.6
2018-06-30T01:42:42.368Z,32.6
2018-06-30T01:43:44.534Z,32.6
2018-06-30T01:44:46.706Z,32.6
2018-06-30T01:45:48.878Z,32.5
2018-06-30T01:46:51.323Z,32.6
2018-06-30T01:47:53.506Z,32.5
2018-06-30T01:48:55.995Z,32.6
2018-06-30T01:49:58.190Z,32.5
2018-06-30T01:51:00.627Z,32.5
2018-06-30T01:52:02.808Z,32.6
2018-06-30T01:53:05.040Z,32.6
2018-06-30T01:54:07.494Z,32.5
2018-06-30T01:55:09.937Z,32.6
2018-06-30T01:56:12.390Z,32.7
2018-06-30T01:57:14.585Z,32.6
2018-06-30T01:58:17.028Z,32.7
2018-06-30T01:59:19.470Z,32.6
2018-06-30T02:00:21.921Z,32.5
2018-06-30T02:01:24.379Z,32.6
2018-06-30T02:02:26.548Z,32.5
2018-06-30T02:03:28.743Z,32.6
2018-06-30T02:04:31.189Z,32.5
2018-06-30T02:05:33.104Z,32.7
2018-06-30T02:06:35.561Z,32.6
2018-06-30T02:07:37.459Z,32.7
2018-06-30T02:08:39.904Z,32.6
2018-06-30T02:09:41.820Z,32.6
2018-06-30T02:10:44.256Z,32.6
2018-06-30T02:11:46.408Z,32.6
2018-06-30T02:12:48.328Z,32.5
2018-06-30T02:13:50.204Z,32.6
2018-06-30T02:14:52.662Z,32.6
2018-06-30T02:15:54.840Z,32.6
2018-06-30T02:16:57.288Z,32.7
2018-06-30T02:17:58.897Z,32.7
2018-06-30T02:19:01.353Z,32.6
2018-06-30T02:20:03.525Z,32.5
2018-06-30T02:21:05.443Z,32.6
2018-06-30T02:22:07.907Z,32.6
2018-06-30T02:23:09.811Z,32.6
2018-06-30T02:24:11.463Z,32.5
2018-06-30T02:25:13.636Z,32.5
2018-06-30T02:26:16.088Z,32.6
2018-06-30T02:27:18.277Z,32.6
2018-06-30T02:28:20.723Z,32.7
2018-06-30T02:29:23.158Z,32.6
2018-06-30T02:30:25.606Z,32.6
2018-06-30T02:31:27.534Z,32.5
2018-06-30T02:32:29.739Z,32.6
2018-06-30T02:33:32.186Z,32.5
2018-06-30T02:34:34.357Z,32.6
2018-06-30T02:35:36.548Z,32.6
2018-06-30T02:36:38.999Z,32.6
2018-06-30T02:37:41.177Z,32.6
2018-06-30T02:38:43.366Z,32.6
2018-06-30T02:39:45.852Z,32.6
2018-06-30T02:40:48.300Z,32.6
2018-06-30T02:41:50.764Z,32.6
2018-06-30T02:42:53.211Z,32.6
2018-06-30T02:43:55.744Z,32.6
2018-06-30T02:44:57.929Z,32.6
2018-06-30T02:46:00.510Z,32.6
2018-06-30T02:47:03.308Z,32.5
2018-06-30T02:48:05.488Z,32.5
2018-06-30T02:49:07.947Z,32.6
2018-06-30T02:50:09.896Z,32.7
2018-06-30T02:51:12.357Z,32.6
2018-06-30T02:52:14.258Z,32.5
2018-06-30T02:53:16.440Z,32.6
2018-06-30T02:54:18.611Z,32.6
2018-06-30T02:55:21.066Z,32.6
2018-06-30T02:56:23.245Z,32.5
2018-06-30T02:57:25.782Z,32.5
2018-06-30T02:58:27.686Z,32.6
2018-06-30T02:59:29.882Z,32.6
2018-06-30T03:00:32.331Z,32.6
2018-06-30T03:01:34.230Z,32.6
2018-06-30T03:02:36.690Z,32.6
2018-06-30T03:03:38.856Z,32.6
2018-06-30T03:04:40.766Z,32.6
2018-06-30T03:05:42.374Z,32.6
2018-06-30T03:06:44.019Z,32.6
2018-06-30T03:07:46.199Z,32.4
2018-06-30T03:08:48.358Z,32.7
2018-06-30T03:09:50.802Z,32.5
2018-06-30T03:10:53.247Z,32.5
2018-06-30T03:11:55.430Z,32.6
2018-06-30T03:12:57.341Z,32.6
2018-06-30T03:13:59.485Z,32.5
2018-06-30T03:15:01.360Z,32.6
2018-06-30T03:16:03.228Z,32.5
2018-06-30T03:17:05.148Z,32.6
2018-06-30T03:18:07.062Z,32.6
2018-06-30T03:19:09.216Z,32.6
2018-06-30T03:20:11.657Z,32.6
2018-06-30T03:21:14.108Z,32.5
2018-06-30T03:22:16.279Z,32.7
2018-06-30T03:23:18.429Z,32.7
2018-06-30T03:24:20.609Z,32.6
2018-06-30T03:25:23.060Z,32.6
2018-06-30T03:26:25.250Z,32.6
2018-06-30T03:27:26.866Z,32.7
2018-06-30T03:28:29.084Z,32.6
2018-06-30T03:29:31.255Z,32.6
2018-06-30T03:30:33.708Z,32.6
2018-06-30T03:31:35.782Z,32.6
2018-06-30T03:32:38.205Z,32.6
2018-06-30T03:33:40.378Z,32.6
2018-06-30T03:34:42.553Z,32.7
2018-06-30T03:35:44.189Z,32.5
2018-06-30T03:36:46.686Z,32.6
2018-06-30T03:37:48.873Z,32.6
2018-06-30T03:38:51.055Z,32.6
2018-06-30T03:39:52.927Z,32.5
2018-06-30T03:40:55.071Z,32.7
2018-06-30T03:41:56.718Z,32.6
2018-06-30T03:42:59.168Z,32.5
2018-06-30T03:44:01.353Z,32.6
2018-06-30T03:45:03.528Z,32.7
2018-06-30T03:46:05.973Z,32.7
2018-06-30T03:47:08.548Z,32.7
2018-06-30T03:48:10.991Z,32.7
2018-06-30T03:49:12.970Z,32.7
2018-06-30T03:50:15.141Z,32.7
2018-06-30T03:51:17.299Z,32.6
2018-06-30T03:52:19.491Z,32.7
2018-06-30T03:53:21.946Z,32.6
2018-06-30T03:54:24.396Z,32.6
2018-06-30T03:55:26.869Z,32.6
2018-06-30T03:56:29.070Z,32.7
2018-06-30T03:57:31.242Z,32.7
2018-06-30T03:58:33.698Z,32.8
2018-06-30T03:59:35.301Z,32.6
2018-06-30T04:00:37.480Z,32.7
2018-06-30T04:01:39.672Z,32.6
2018-06-30T04:02:41.862Z,32.7
2018-06-30T04:03:44.040Z,32.6
2018-06-30T04:04:46.486Z,32.7
2018-06-30T04:05:48.930Z,32.7
2018-06-30T04:06:51.391Z,32.7
2018-06-30T04:07:53.597Z,32.7
2018-06-30T04:08:55.762Z,32.6
2018-06-30T04:09:58.205Z,32.5
2018-06-30T04:11:00.656Z,32.6
2018-06-30T04:12:03.117Z,32.6
2018-06-30T04:13:05.560Z,32.5
2018-06-30T04:14:08.010Z,32.5
2018-06-30T04:15:09.910Z,32.7
2018-06-30T04:16:12.343Z,32.6
2018-06-30T04:17:14.488Z,32.6
2018-06-30T04:18:16.682Z,32.7
2018-06-30T04:19:18.855Z,32.6
2018-06-30T04:20:21.296Z,32.7
2018-06-30T04:21:23.736Z,32.6
2018-06-30T04:22:26.179Z,32.6
2018-06-30T04:23:28.364Z,32.6
2018-06-30T04:24:30.543Z,32.7
2018-06-30T04:25:32.768Z,32.5
2018-06-30T04:26:35.076Z,32.6
2018-06-30T04:27:37.524Z,32.6
2018-06-30T04:28:39.718Z,32.7
2018-06-30T04:29:42.174Z,32.6
2018-06-30T04:30:44.075Z,32.6
2018-06-30T04:31:46.263Z,32.8
2018-06-30T04:32:48.171Z,32.7
2018-06-30T04:33:50.607Z,32.6
2018-06-30T04:34:52.801Z,32.8
2018-06-30T04:35:55.258Z,32.8
2018-06-30T04:36:57.438Z,32.8
2018-06-30T04:37:59.609Z,32.6
2018-06-30T04:39:01.785Z,32.8
2018-06-30T04:40:03.953Z,32.7
2018-06-30T04:41:06.394Z,32.7
2018-06-30T04:42:08.310Z,32.8
2018-06-30T04:43:10.489Z,32.8
2018-06-30T04:44:12.927Z,32.6
2018-06-30T04:45:15.124Z,32.6
2018-06-30T04:46:17.781Z,32.7
2018-06-30T04:47:20.234Z,32.6
2018-06-30T04:48:22.419Z,32.6
2018-06-30T04:49:24.856Z,32.6
2018-06-30T04:50:26.768Z,32.7
2018-06-30T04:51:28.639Z,32.7
2018-06-30T04:52:31.102Z,32.6
2018-06-30T04:53:33.270Z,32.7
2018-06-30T04:54:35.453Z,32.7
2018-06-30T04:55:37.899Z,32.5
2018-06-30T04:56:40.355Z,32.7
2018-06-30T04:57:42.667Z,32.7
2018-06-30T04:58:45.550Z,32.7
2018-06-30T04:59:48.009Z,32.6
2018-06-30T05:00:50.193Z,32.6
2018-06-30T05:01:52.381Z,32.7
2018-06-30T05:02:54.841Z,32.6
2018-06-30T05:03:57.009Z,32.6
2018-06-30T05:04:59.189Z,32.8
2018-06-30T05:06:01.652Z,32.5
2018-06-30T05:07:03.840Z,32.6
2018-06-30T05:08:06.283Z,32.6
2018-06-30T05:09:08.433Z,32.6
2018-06-30T05:10:10.888Z,32.6
2018-06-30T05:11:13.058Z,32.7
2018-06-30T05:12:15.245Z,32.6
2018-06-30T05:13:17.695Z,32.6
2018-06-30T05:14:19.875Z,32.7
2018-06-30T05:15:22.049Z,32.6
2018-06-30T05:16:24.223Z,32.7
2018-06-30T05:17:26.405Z,32.6
2018-06-30T05:18:28.856Z,32.6
2018-06-30T05:19:31.313Z,32.6
2018-06-30T05:20:33.510Z,32.6
2018-06-30T05:21:35.939Z,32.6
2018-06-30T05:22:37.838Z,32.6
2018-06-30T05:23:40.020Z,32.6
2018-06-30T05:24:42.461Z,32.6
2018-06-30T05:25:44.904Z,32.6
2018-06-30T05:26:47.391Z,32.7
2018-06-30T05:27:49.538Z,32.5
2018-06-30T05:28:51.418Z,32.6
2018-06-30T05:29:53.313Z,32.5
2018-06-30T05:30:55.767Z,32.6
2018-06-30T05:31:57.913Z,32.6
2018-06-30T05:33:00.359Z,32.6
2018-06-30T05:34:02.511Z,32.6
2018-06-30T05:35:04.953Z,32.6
2018-06-30T05:36:07.468Z,32.6
2018-06-30T05:37:09.917Z,32.6
2018-06-30T05:38:12.388Z,32.6
2018-06-30T05:39:14.568Z,32.5
2018-06-30T05:40:16.517Z,32.6
2018-06-30T05:41:19.043Z,32.6
2018-06-30T05:42:21.493Z,32.6
2018-06-30T05:43:23.942Z,32.5
2018-06-30T05:44:26.395Z,32.5
2018-06-30T05:45:28.828Z,32.7
2018-06-30T05:46:30.733Z,32.6
2018-06-30T05:47:33.178Z,32.6
2018-06-30T05:48:35.632Z,32.6
2018-06-30T05:49:38.078Z,32.5
2018-06-30T05:50:40.264Z,32.7
2018-06-30T05:51:42.184Z,32.6
2018-06-30T05:52:44.631Z,32.5
2018-06-30T05:53:46.800Z,32.6
2018-06-30T05:54:48.439Z,32.6
2018-06-30T05:55:50.887Z,32.5
2018-06-30T05:56:53.054Z,32.6
2018-06-30T05:57:55.230Z,32.7
2018-06-30T05:58:57.859Z,32.6
2018-06-30T06:00:00.300Z,32.5
2018-06-30T06:01:02.756Z,32.7
2018-06-30T06:02:05.203Z,32.5
2018-06-30T06:03:07.112Z,32.6
2018-06-30T06:04:09.050Z,32.6
2018-06-30T06:05:11.477Z,32.4
2018-06-30T06:06:13.662Z,32.6
2018-06-30T06:07:16.103Z,32.4
2018-06-30T06:08:18.559Z,32.6
2018-06-30T06:09:21.006Z,32.6
2018-06-30T06:10:23.184Z,32.6
2018-06-30T06:11:25.639Z,32.6
2018-06-30T06:12:27.830Z,32.5
2018-06-30T06:13:29.455Z,32.5
2018-06-30T06:14:31.072Z,32.5
2018-06-30T06:15:33.249Z,32.6
2018-06-30T06:16:35.429Z,32.5
2018-06-30T06:17:37.877Z,32.5
2018-06-30T06:18:40.322Z,32.5
2018-06-30T06:19:42.811Z,32.4
2018-06-30T06:20:44.722Z,32.6
2018-06-30T06:21:47.172Z,32.5
2018-06-30T06:22:49.382Z,32.6
2018-06-30T06:23:50.994Z,32.6
2018-06-30T06:24:53.176Z,32.5
2018-06-30T06:25:55.735Z,32.5
2018-06-30T06:26:58.040Z,32.6
2018-06-30T06:28:00.212Z,32.5
2018-06-30T06:29:02.667Z,32.6
2018-06-30T06:30:05.123Z,32.6
2018-06-30T06:31:07.305Z,32.6
2018-06-30T06:32:09.469Z,32.7
2018-06-30T06:33:11.680Z,32.6
2018-06-30T06:34:13.829Z,32.5
2018-06-30T06:35:15.728Z,32.6
2018-06-30T06:36:17.912Z,32.6
2018-06-30T06:37:20.407Z,32.6
2018-06-30T06:38:22.596Z,32.5
2018-06-30T06:39:24.758Z,32.6
2018-06-30T06:40:26.694Z,32.5
2018-06-30T06:41:28.877Z,32.5
2018-06-30T06:42:31.042Z,32.6
2018-06-30T06:43:33.218Z,32.6
2018-06-30T06:44:35.128Z,32.7
2018-06-30T06:45:37.576Z,32.6
2018-06-30T06:46:40.026Z,32.6
2018-06-30T06:47:41.916Z,32.5
2018-06-30T06:48:44.369Z,32.5
2018-06-30T06:49:46.549Z,32.4
2018-06-30T06:50:48.427Z,32.6
2018-06-30T06:51:50.647Z,32.6
2018-06-30T06:52:52.819Z,32.5
2018-06-30T06:53:54.998Z,32.6
2018-06-30T06:54:56.882Z,32.5
2018-06-30T06:55:59.318Z,32.5
2018-06-30T06:57:01.207Z,32.6
2018-06-30T06:58:03.407Z,32.4
2018-06-30T06:59:05.327Z,32.6
2018-06-30T07:00:07.784Z,32.5
2018-06-30T07:01:10.233Z,32.6
2018-06-30T07:02:12.425Z,32.6
2018-06-30T07:03:14.622Z,32.5
2018-06-30T07:04:16.796Z,32.6
2018-06-30T07:05:19.232Z,32.6
2018-06-30T07:06:21.418Z,32.5
2018-06-30T07:07:23.869Z,32.5
2018-06-30T07:08:26.317Z,32.6
2018-06-30T07:09:28.498Z,32.5
2018-06-30T07:10:30.678Z,32.5
2018-06-30T07:11:33.146Z,32.6
2018-06-30T07:12:35.611Z,32.6
2018-06-30T07:13:37.795Z,32.6
2018-06-30T07:14:39.974Z,32.6
2018-06-30T07:15:42.151Z,32.5
2018-06-30T07:16:44.351Z,32.5
2018-06-30T07:17:46.259Z,32.5
2018-06-30T07:18:48.431Z,32.6
2018-06-30T07:19:50.444Z,32.5
2018-06-30T07:20:52.636Z,32.6
2018-06-30T07:21:55.084Z,32.5
2018-06-30T07:22:56.966Z,32.5
2018-06-30T07:23:59.424Z,32.6
2018-06-30T07:25:01.881Z,32.5
2018-06-30T07:26:04.331Z,32.6
2018-06-30T07:27:06.511Z,32.5
2018-06-30T07:28:08.965Z,32.6
2018-06-30T07:29:10.870Z,32.5
2018-06-30T07:30:13.230Z,32.5
2018-06-30T07:31:15.420Z,32.6
2018-06-30T07:32:17.666Z,32.6
2018-06-30T07:33:20.097Z,32.7
2018-06-30T07:34:22.562Z,32.7
2018-06-30T07:35:25.012Z,32.6
2018-06-30T07:36:27.345Z,32.6
2018-06-30T07:37:29.903Z,32.6
2018-06-30T07:38:31.788Z,32.6
2018-06-30T07:39:34.235Z,32.6
2018-06-30T07:40:36.702Z,32.6
2018-06-30T07:41:39.168Z,32.7
2018-06-30T07:42:41.606Z,32.7
2018-06-30T07:43:43.511Z,32.5
2018-06-30T07:44:45.949Z,32.5
2018-06-30T07:45:47.870Z,32.7
2018-06-30T07:46:50.449Z,32.6
2018-06-30T07:47:52.910Z,32.5
2018-06-30T07:48:55.090Z,32.6
2018-06-30T07:49:57.548Z,32.4
2018-06-30T07:50:59.988Z,32.5
2018-06-30T07:52:02.439Z,32.6
2018-06-30T07:53:04.638Z,32.5
2018-06-30T07:54:06.560Z,32.6
2018-06-30T07:55:08.749Z,32.5
2018-06-30T07:56:11.452Z,32.6
2018-06-30T07:57:13.802Z,32.7
2018-06-30T07:58:15.979Z,32.6
2018-06-30T07:59:17.874Z,32.6
2018-06-30T08:00:20.079Z,32.5
2018-06-30T08:01:22.281Z,32.6
2018-06-30T08:02:24.737Z,32.6
2018-06-30T08:03:26.936Z,32.5
2018-06-30T08:04:29.221Z,32.6
2018-06-30T08:05:31.189Z,32.6
2018-06-30T08:06:33.642Z,32.6
2018-06-30T08:07:35.357Z,32.7
2018-06-30T08:08:37.837Z,32.6
2018-06-30T08:09:40.323Z,32.5
2018-06-30T08:10:42.784Z,32.5
2018-06-30T08:11:44.957Z,32.6
2018-06-30T08:12:47.135Z,32.6
2018-06-30T08:13:49.673Z,32.5
2018-06-30T08:14:51.644Z,32.6
2018-06-30T08:15:54.111Z,32.5
2018-06-30T08:16:56.566Z,32.6
2018-06-30T08:17:58.478Z,32.6
2018-06-30T08:19:00.657Z,32.7
2018-06-30T08:20:03.106Z,32.7
2018-06-30T08:21:05.277Z,32.6
2018-06-30T08:22:07.577Z,32.5
2018-06-30T08:23:09.457Z,32.7
2018-06-30T08:24:11.900Z,32.6
2018-06-30T08:25:14.354Z,32.6
2018-06-30T08:26:16.544Z,32.6
2018-06-30T08:27:18.723Z,32.6
2018-06-30T08:28:21.184Z,32.6
2018-06-30T08:29:23.656Z,32.6
2018-06-30T08:30:25.860Z,32.6
2018-06-30T08:31:28.020Z,32.5
2018-06-30T08:32:30.472Z,32.7
2018-06-30T08:33:32.929Z,32.6
2018-06-30T08:34:34.821Z,32.6
2018-06-30T08:35:37.270Z,32.5
2018-06-30T08:36:39.180Z,32.6
2018-06-30T08:37:41.634Z,32.6
2018-06-30T08:38:43.810Z,32.6
2018-06-30T08:39:46.260Z,32.6
2018-06-30T08:40:48.439Z,32.5
2018-06-30T08:41:50.607Z,32.6
2018-06-30T08:42:52.510Z,32.6
2018-06-30T08:43:54.679Z,32.6
2018-06-30T08:44:57.135Z,32.6
2018-06-30T08:45:59.597Z,32.6
2018-06-30T08:47:02.043Z,32.6
2018-06-30T08:48:03.928Z,32.6
2018-06-30T08:49:05.838Z,32.6
2018-06-30T08:50:08.294Z,32.5
2018-06-30T08:51:10.813Z,32.6
2018-06-30T08:52:13.530Z,32.5
2018-06-30T08:53:15.988Z,32.4
2018-06-30T08:54:18.442Z,32.6
2018-06-30T08:55:20.986Z,32.6
2018-06-30T08:56:22.958Z,32.5
2018-06-30T08:57:25.401Z,32.5
2018-06-30T08:58:27.302Z,32.5
2018-06-30T08:59:29.835Z,32.4
2018-06-30T09:00:32.514Z,32.5
2018-06-30T09:01:35.160Z,32.5
2018-06-30T09:02:37.409Z,32.6
2018-06-30T09:03:39.970Z,32.5
2018-06-30T09:04:42.301Z,32.5
2018-06-30T09:05:44.758Z,32.5
2018-06-30T09:06:47.235Z,32.6
2018-06-30T09:07:49.423Z,32.5
2018-06-30T09:08:51.875Z,32.6
2018-06-30T09:09:54.325Z,32.7
2018-06-30T09:10:56.497Z,32.6
2018-06-30T09:11:59.129Z,32.6
2018-06-30T09:13:01.177Z,32.7
2018-06-30T09:14:03.329Z,32.6
2018-06-30T09:15:05.534Z,32.7
2018-06-30T09:16:07.832Z,32.6
2018-06-30T09:17:09.812Z,32.7
2018-06-30T09:18:11.995Z,32.6
2018-06-30T09:19:14.187Z,32.7
2018-06-30T09:20:16.733Z,32.7
2018-06-30T09:21:18.996Z,32.7
2018-06-30T09:22:20.875Z,32.8
2018-06-30T09:23:23.060Z,32.9
2018-06-30T09:24:25.276Z,32.7
2018-06-30T09:25:27.489Z,32.7
2018-06-30T09:26:29.363Z,32.9
2018-06-30T09:27:31.808Z,32.9
2018-06-30T09:28:33.996Z,32.9
2018-06-30T09:29:36.481Z,32.8
2018-06-30T09:30:38.411Z,32.9
2018-06-30T09:31:40.863Z,32.9
2018-06-30T09:32:43.016Z,32.9
2018-06-30T09:33:45.482Z,33
2018-06-30T09:34:47.960Z,32.9
2018-06-30T09:35:50.419Z,33
2018-06-30T09:36:52.594Z,33
2018-06-30T09:37:54.616Z,32.9
2018-06-30T09:38:56.660Z,33.1
2018-06-30T09:39:59.179Z,33
2018-06-30T09:41:01.072Z,33
2018-06-30T09:42:03.518Z,33.1
2018-06-30T09:43:05.993Z,33.1
2018-06-30T09:44:08.441Z,33
2018-06-30T09:45:10.084Z,33
2018-06-30T09:46:12.258Z,33
2018-06-30T09:47:14.718Z,33.1
2018-06-30T09:48:16.917Z,33
2018-06-30T09:49:19.108Z,33
2018-06-30T09:50:21.570Z,33
2018-06-30T09:51:23.455Z,33
2018-06-30T09:52:25.900Z,33.1
2018-06-30T09:53:28.350Z,33.1
2018-06-30T09:54:30.249Z,33.1
2018-06-30T09:55:32.178Z,33
2018-06-30T09:56:34.337Z,33
2018-06-30T09:57:36.521Z,33.1
2018-06-30T09:58:38.968Z,33.1
2018-06-30T09:59:41.159Z,33.2
2018-06-30T10:00:43.345Z,33.2
2018-06-30T10:01:45.789Z,33.1
2018-06-30T10:02:47.960Z,33.1
2018-06-30T10:03:50.162Z,33
2018-06-30T10:04:52.074Z,33.2
2018-06-30T10:05:54.256Z,33
2018-06-30T10:06:56.533Z,33
2018-06-30T10:07:58.927Z,33.2
2018-06-30T10:09:01.482Z,33.1
2018-06-30T10:10:04.043Z,33.2
2018-06-30T10:11:06.221Z,33.1
2018-06-30T10:12:08.670Z,33.1
2018-06-30T10:13:10.879Z,33.1
2018-06-30T10:14:13.076Z,33.1
2018-06-30T10:15:15.219Z,33.2
2018-06-30T10:16:17.407Z,33.1
2018-06-30T10:17:19.588Z,33.1
2018-06-30T10:18:21.867Z,33.1
2018-06-30T10:19:24.122Z,33.2
2018-06-30T10:20:26.699Z,33.2
2018-06-30T10:21:28.888Z,33.2
2018-06-30T10:22:31.061Z,33.2
2018-06-30T10:23:33.519Z,33.2
2018-06-30T10:24:35.702Z,33.2
2018-06-30T10:25:37.612Z,33.2
2018-06-30T10:26:39.494Z,33.2
2018-06-30T10:27:41.392Z,33.3
2018-06-30T10:28:43.840Z,33.3
2018-06-30T10:29:46.446Z,33.1
2018-06-30T10:30:48.649Z,33.2
2018-06-30T10:31:50.276Z,33.4
2018-06-30T10:32:52.449Z,33.2
2018-06-30T10:33:54.353Z,33.4
2018-06-30T10:34:56.523Z,33.3
2018-06-30T10:35:58.977Z,33.1
2018-06-30T10:37:00.909Z,33.2
2018-06-30T10:38:02.823Z,33.2
2018-06-30T10:39:04.988Z,33.2
2018-06-30T10:40:07.196Z,33.2
2018-06-30T10:41:09.346Z,33.2
2018-06-30T10:42:11.848Z,33.2
2018-06-30T10:43:14.079Z,33.2
2018-06-30T10:44:16.518Z,33.1
2018-06-30T10:45:18.417Z,33.3
2018-06-30T10:46:20.606Z,33.2
2018-06-30T10:47:22.787Z,33.1
2018-06-30T10:48:24.739Z,33.2
2018-06-30T10:49:26.918Z,33.2
2018-06-30T10:50:28.838Z,33.1
2018-06-30T10:51:31.329Z,33.1
2018-06-30T10:52:33.793Z,33.2
2018-06-30T10:53:35.977Z,33.2
2018-06-30T10:54:38.184Z,33.2
2018-06-30T10:55:40.632Z,33.1
2018-06-30T10:56:42.807Z,33.1
2018-06-30T10:57:44.996Z,33
2018-06-30T10:58:47.440Z,33.1
2018-06-30T10:59:49.898Z,33
2018-06-30T11:00:52.362Z,33.1
2018-06-30T11:01:54.798Z,33.1
2018-06-30T11:02:57.004Z,33.1
2018-06-30T11:03:58.975Z,33
2018-06-30T11:05:01.339Z,33
2018-06-30T11:06:03.859Z,33.1
2018-06-30T11:07:06.038Z,33
2018-06-30T11:08:08.496Z,33
2018-06-30T11:09:10.693Z,33
2018-06-30T11:10:13.155Z,33.1
2018-06-30T11:11:15.607Z,32.9
2018-06-30T11:12:17.784Z,33
2018-06-30T11:13:20.232Z,33
2018-06-30T11:14:22.425Z,33
2018-06-30T11:15:24.626Z,33
2018-06-30T11:16:27.089Z,33
2018-06-30T11:17:29.344Z,33
2018-06-30T11:18:31.940Z,33.1
2018-06-30T11:19:34.136Z,33
2018-06-30T11:20:36.600Z,32.9
2018-06-30T11:21:39.070Z,33
2018-06-30T11:22:41.276Z,33
2018-06-30T11:23:43.757Z,33
2018-06-30T11:24:46.216Z,32.9
2018-06-30T11:25:48.692Z,32.9
2018-06-30T11:26:51.142Z,33
2018-06-30T11:27:53.338Z,32.9
2018-06-30T11:28:55.549Z,33.1
2018-06-30T11:29:58.017Z,33
2018-06-30T11:30:59.917Z,33
2018-06-30T11:32:02.382Z,33
2018-06-30T11:33:04.841Z,32.9
2018-06-30T11:34:07.314Z,33
2018-06-30T11:35:09.775Z,33
2018-06-30T11:36:11.951Z,33
2018-06-30T11:37:14.426Z,32.8
2018-06-30T11:38:16.598Z,33.1
2018-06-30T11:39:18.809Z,32.9
2018-06-30T11:40:21.265Z,32.9
2018-06-30T11:41:23.457Z,33.1
2018-06-30T11:42:25.627Z,33.1
2018-06-30T11:43:28.112Z,33
2018-06-30T11:44:30.578Z,32.9
2018-06-30T11:45:32.754Z,32.9
2018-06-30T11:46:35.208Z,33
2018-06-30T11:47:37.394Z,33
2018-06-30T11:48:39.657Z,33
2018-06-30T11:49:41.968Z,32.9
2018-06-30T11:50:44.455Z,32.9
2018-06-30T11:51:46.942Z,32.9
2018-06-30T11:52:49.439Z,33
2018-06-30T11:53:51.904Z,32.9
2018-06-30T11:54:53.767Z,32.9
2018-06-30T11:55:56.212Z,32.9
2018-06-30T11:56:58.397Z,33.1
2018-06-30T11:58:00.297Z,33
2018-06-30T11:59:02.769Z,32.9
2018-06-30T12:00:05.232Z,32.9
2018-06-30T12:01:07.414Z,32.9
2018-06-30T12:02:10.044Z,32.9
2018-06-30T12:03:12.030Z,33.1
2018-06-30T12:04:13.927Z,32.9
2018-06-30T12:05:16.372Z,33
2018-06-30T12:06:18.559Z,32.8
2018-06-30T12:07:20.460Z,33.1
2018-06-30T12:08:22.908Z,33
2018-06-30T12:09:25.445Z,33
2018-06-30T12:10:27.935Z,33
2018-06-30T12:11:30.119Z,33
2018-06-30T12:12:32.292Z,33.1
2018-06-30T12:13:34.482Z,33
2018-06-30T12:14:36.359Z,33
2018-06-30T12:15:38.251Z,32.9
2018-06-30T12:16:40.433Z,33
2018-06-30T12:17:42.580Z,32.9
2018-06-30T12:18:45.089Z,33
2018-06-30T12:19:47.243Z,33
2018-06-30T12:20:49.676Z,33
2018-06-30T12:21:52.143Z,32.9
2018-06-30T12:22:54.542Z,33
2018-06-30T12:23:57.067Z,33
2018-06-30T12:24:59.508Z,32.9
2018-06-30T12:26:01.133Z,33
2018-06-30T12:27:03.038Z,33
2018-06-30T12:28:05.495Z,33
2018-06-30T12:29:07.952Z,33
2018-06-30T12:30:10.412Z,33
2018-06-30T12:31:12.035Z,33
2018-06-30T12:32:14.520Z,33
2018-06-30T12:33:16.880Z,33
2018-06-30T12:34:19.052Z,32.9
2018-06-30T12:35:21.216Z,32.9
2018-06-30T12:36:23.682Z,33.1
2018-06-30T12:37:25.863Z,33
2018-06-30T12:38:28.305Z,32.9
2018-06-30T12:39:30.763Z,33
2018-06-30T12:40:33.210Z,33
2018-06-30T12:41:35.117Z,33
2018-06-30T12:42:37.573Z,32.9
2018-06-30T12:43:39.764Z,33
2018-06-30T12:44:41.940Z,32.9
2018-06-30T12:45:44.112Z,33
2018-06-30T12:46:46.559Z,33
2018-06-30T12:47:48.725Z,33.1
2018-06-30T12:48:50.943Z,33
2018-06-30T12:49:52.852Z,33
2018-06-30T12:50:54.736Z,33
2018-06-30T12:51:57.182Z,33
2018-06-30T12:52:59.658Z,33
2018-06-30T12:54:01.844Z,33
2018-06-30T12:55:04.304Z,33
2018-06-30T12:56:06.758Z,33.1
2018-06-30T12:57:08.928Z,33
2018-06-30T12:58:10.845Z,33
2018-06-30T12:59:13.329Z,33
2018-06-30T13:00:15.770Z,32.9
2018-06-30T13:01:18.250Z,33.1
2018-06-30T13:02:20.149Z,33
2018-06-30T13:03:22.610Z,33.1
2018-06-30T13:04:24.531Z,33
2018-06-30T13:05:26.741Z,32.9
2018-06-30T13:06:29.028Z,33.1
2018-06-30T13:07:31.489Z,32.9
2018-06-30T13:08:33.712Z,33
2018-06-30T13:09:35.626Z,33
2018-06-30T13:10:37.789Z,33
2018-06-30T13:11:40.266Z,33
2018-06-30T13:12:42.726Z,33.1
2018-06-30T13:13:45.181Z,33
2018-06-30T13:14:47.346Z,33
2018-06-30T13:15:49.791Z,33.2
2018-06-30T13:16:52.263Z,33
2018-06-30T13:17:54.448Z,33.1
2018-06-30T13:18:56.384Z,33.1
2018-06-30T13:19:58.577Z,33.2
2018-06-30T13:21:00.493Z,33.1
2018-06-30T13:22:02.978Z,33.1
2018-06-30T13:23:05.489Z,33.1
2018-06-30T13:24:08.085Z,33.1
2018-06-30T13:25:10.530Z,33.2
2018-06-30T13:26:12.422Z,33.2
2018-06-30T13:27:14.869Z,33.1
2018-06-30T13:28:16.752Z,33.3
2018-06-30T13:29:18.948Z,33.2
2018-06-30T13:30:21.398Z,33.2
2018-06-30T13:31:23.574Z,33.3
2018-06-30T13:32:26.028Z,33.3
2018-06-30T13:33:28.226Z,33.3
2018-06-30T13:34:30.169Z,33.3
2018-06-30T13:35:32.620Z,33.2
2018-06-30T13:36:35.059Z,33.4
2018-06-30T13:37:37.259Z,33.4
2018-06-30T13:38:39.711Z,33.4
2018-06-30T13:39:42.171Z,33.4
2018-06-30T13:40:44.516Z,33.4
2018-06-30T13:41:46.560Z,33.4
2018-06-30T13:42:49.003Z,33.4
2018-06-30T13:43:51.167Z,33.3
2018-06-30T13:44:53.350Z,33.3
2018-06-30T13:45:55.252Z,33.3
2018-06-30T13:46:57.183Z,33.4
2018-06-30T13:47:59.650Z,33.3
2018-06-30T13:49:02.106Z,33.4
2018-06-30T13:50:04.012Z,33.3
2018-06-30T13:51:06.189Z,33.3
2018-06-30T13:52:08.672Z,33.4
2018-06-30T13:53:11.120Z,33.4
2018-06-30T13:54:13.026Z,33.4